Terminal Aerodrome Forecast
Issued by NWS

Home | Current Version | Previous Version | Text Only | Print | Product List | Glossary On
Versions: 1 2 3 4 5 6 7 8 9 10 11 12 13 14 15 16 17 18 19 20 21 22 23 24 25 26 27 28 29 30 31
000
FTUS41 KOKX 231357 AAB
TAFGON
TAF AMD
KGON 231357Z 2314/2412 18004KT 5SM HZ FEW002 BKN100
     FM231600 19008KT P6SM SCT100 BKN250
     FM231800 20010KT P6SM VCSH SCT025 BKN050
     FM232200 21010G17KT P6SM VCTS SCT025CB BKN050 PROB30 2323/2403
      3SM TS
     FM240900 21008KT 3SM SHRA VCTS BKN025CB=

USA.gov is the U.S. government's official web portal to all federal, state and local government web resources and services.